createdAt,value
2023-01-29T00:01:44.988Z,2.17
2023-01-29T00:04:13.352Z,2.10
2023-01-29T00:06:40.090Z,2.23
2023-01-29T00:09:06.800Z,2.50
2023-01-29T00:11:33.746Z,2.39
2023-01-29T00:14:00.543Z,2.69
2023-01-29T00:16:27.511Z,2.49
2023-01-29T00:18:54.302Z,2.34
2023-01-29T00:21:23.419Z,2.17
2023-01-29T00:23:50.679Z,1.77
2023-01-29T00:26:17.703Z,1.95
2023-01-29T00:28:44.536Z,1.91
2023-01-29T00:31:13.289Z,1.91
2023-01-29T00:33:40.092Z,1.88
2023-01-29T00:36:09.337Z,2.02
2023-01-29T00:38:38.421Z,1.79
2023-01-29T00:41:06.204Z,1.79
2023-01-29T00:43:32.923Z,1.64
2023-01-29T00:45:59.692Z,1.93
2023-01-29T00:48:26.415Z,2.17
2023-01-29T00:50:53.144Z,2.37
2023-01-29T00:53:19.851Z,3.33
2023-01-29T00:55:47.999Z,3.20
2023-01-29T00:58:14.739Z,2.97
2023-01-29T01:00:41.582Z,2.93
2023-01-29T01:03:10.173Z,3.13
2023-01-29T01:05:37.202Z,3.06
2023-01-29T01:08:04.442Z,2.69
2023-01-29T01:10:33.060Z,2.54
2023-01-29T01:13:02.942Z,2.74
2023-01-29T01:15:33.815Z,2.82
2023-01-29T01:18:02.271Z,2.75
2023-01-29T01:20:31.045Z,2.72
2023-01-29T01:22:58.093Z,2.69
2023-01-29T01:25:27.037Z,2.66
2023-01-29T01:27:54.452Z,3.13
2023-01-29T01:30:23.664Z,3.00
2023-01-29T01:32:50.630Z,3.08
2023-01-29T01:35:17.821Z,3.13
2023-01-29T01:37:44.557Z,2.91
2023-01-29T01:40:18.579Z,2.99
2023-01-29T01:42:48.241Z,2.32
2023-01-29T01:45:21.418Z,2.13
2023-01-29T01:47:52.545Z,2.07
2023-01-29T01:50:25.203Z,1.65
2023-01-29T01:52:55.506Z,1.52
2023-01-29T01:55:26.396Z,1.76
2023-01-29T01:58:00.126Z,1.89
2023-01-29T02:00:27.344Z,2.36
2023-01-29T02:02:55.774Z,2.35
2023-01-29T02:05:22.837Z,2.20
2023-01-29T02:07:51.432Z,2.14
2023-01-29T02:10:19.939Z,1.89
2023-01-29T02:12:47.648Z,2.09
2023-01-29T02:15:14.503Z,1.97
2023-01-29T02:17:41.405Z,2.18
2023-01-29T02:20:18.200Z,2.61
2023-01-29T02:23:17.351Z,2.53
2023-01-29T02:25:59.995Z,2.66
2023-01-29T02:28:34.390Z,2.93
2023-01-29T02:31:09.571Z,2.60
2023-01-29T02:33:45.832Z,2.72
2023-01-29T02:36:19.848Z,3.42
2023-01-29T02:38:55.034Z,3.31
2023-01-29T02:41:28.653Z,3.10
2023-01-29T02:44:03.483Z,3.18
2023-01-29T02:46:35.697Z,3.79
2023-01-29T02:49:11.061Z,3.22
2023-01-29T02:51:43.950Z,3.15
2023-01-29T02:54:18.410Z,2.75
2023-01-29T02:56:51.690Z,2.47
2023-01-29T02:59:24.550Z,2.57
2023-01-29T03:01:55.971Z,2.71
2023-01-29T03:04:27.564Z,2.80
2023-01-29T03:06:59.789Z,2.35
2023-01-29T03:09:32.947Z,2.04
2023-01-29T03:12:05.472Z,1.95
2023-01-29T03:14:37.974Z,1.87
2023-01-29T03:17:07.414Z,1.82
2023-01-29T03:19:40.164Z,2.01
2023-01-29T03:22:09.885Z,1.90
2023-01-29T03:24:44.079Z,2.13
2023-01-29T03:27:14.500Z,1.75
2023-01-29T03:29:44.024Z,1.61
2023-01-29T03:32:12.083Z,1.56
2023-01-29T03:34:42.747Z,1.40
2023-01-29T03:37:15.722Z,1.86
2023-01-29T03:39:42.676Z,1.92
2023-01-29T03:42:17.643Z,2.52
2023-01-29T03:44:53.421Z,2.56
2023-01-29T03:47:24.392Z,2.49
2023-01-29T03:49:59.359Z,2.16
2023-01-29T03:52:38.858Z,2.34
2023-01-29T03:55:15.049Z,2.01
2023-01-29T03:57:46.110Z,2.13
2023-01-29T04:00:17.848Z,2.11
2023-01-29T04:02:52.625Z,2.38
2023-01-29T04:05:22.733Z,2.40
2023-01-29T04:07:54.760Z,2.15
2023-01-29T04:10:26.791Z,2.84
2023-01-29T04:12:59.406Z,2.45
2023-01-29T04:15:31.255Z,2.49
2023-01-29T04:17:58.039Z,2.09
2023-01-29T04:20:24.979Z,2.38
2023-01-29T04:22:53.125Z,2.07
2023-01-29T04:25:22.683Z,2.00
2023-01-29T04:27:57.482Z,1.93
2023-01-29T04:30:35.653Z,2.42
2023-01-29T04:33:14.108Z,2.44
2023-01-29T04:35:56.312Z,3.18
2023-01-29T04:38:34.209Z,2.71
2023-01-29T04:41:09.155Z,2.63
2023-01-29T04:43:42.258Z,2.46
2023-01-29T04:46:16.659Z,2.18
2023-01-29T04:48:58.978Z,2.43
2023-01-29T04:51:34.455Z,2.42
2023-01-29T04:54:09.163Z,2.35
2023-01-29T04:56:44.524Z,1.64
2023-01-29T04:59:15.110Z,1.63
2023-01-29T05:01:44.569Z,1.58
2023-01-29T05:04:14.752Z,1.37
2023-01-29T05:06:42.322Z,1.03
2023-01-29T05:09:09.732Z,0.92
2023-01-29T05:11:37.175Z,0.89
2023-01-29T05:14:07.051Z,0.80
2023-01-29T05:16:40.076Z,0.57
2023-01-29T05:19:09.198Z,0.52
2023-01-29T05:21:35.993Z,0.47
2023-01-29T05:24:10.686Z,0.43
2023-01-29T05:26:37.819Z,0.42
2023-01-29T05:29:04.567Z,0.40
2023-01-29T05:31:31.389Z,0.51
2023-01-29T05:33:58.211Z,0.55
2023-01-29T05:36:26.302Z,0.44
2023-01-29T05:38:53.112Z,0.42
2023-01-29T05:41:20.016Z,0.36
2023-01-29T05:43:46.794Z,0.38
2023-01-29T05:46:13.569Z,0.41
2023-01-29T05:48:40.334Z,0.34
2023-01-29T05:51:07.160Z,0.33
2023-01-29T05:53:35.293Z,0.53
2023-01-29T05:56:03.397Z,0.44
2023-01-29T05:58:31.087Z,0.66
2023-01-29T06:00:58.007Z,0.64
2023-01-29T06:03:24.737Z,0.67
2023-01-29T06:05:51.484Z,0.82
2023-01-29T06:08:18.199Z,0.84
2023-01-29T06:10:46.351Z,1.02
2023-01-29T06:13:13.148Z,1.34
2023-01-29T06:15:40.382Z,1.18
2023-01-29T06:18:07.161Z,1.59
2023-01-29T06:20:33.994Z,1.23
2023-01-29T06:23:00.770Z,0.90
2023-01-29T06:25:27.756Z,0.62
2023-01-29T06:27:59.138Z,0.52
2023-01-29T06:30:26.165Z,0.46
2023-01-29T06:32:55.977Z,0.64
2023-01-29T06:35:22.669Z,0.58
2023-01-29T06:37:49.520Z,0.50
2023-01-29T06:40:16.954Z,0.63
2023-01-29T06:42:46.078Z,0.64
2023-01-29T06:45:14.605Z,0.56
2023-01-29T06:47:41.383Z,0.58
2023-01-29T06:50:09.320Z,0.52
2023-01-29T06:52:36.068Z,0.41
2023-01-29T06:55:02.844Z,0.72
2023-01-29T06:57:29.887Z,0.87
2023-01-29T06:59:56.680Z,1.22
2023-01-29T07:02:24.876Z,0.89
2023-01-29T07:04:51.601Z,0.88
2023-01-29T07:07:18.367Z,0.88
2023-01-29T07:09:45.188Z,0.85
2023-01-29T07:12:12.042Z,0.61
2023-01-29T07:14:38.768Z,0.84
2023-01-29T07:17:05.513Z,0.70
2023-01-29T07:19:33.653Z,0.50
2023-01-29T07:22:00.375Z,0.37
2023-01-29T07:24:27.200Z,0.46
2023-01-29T07:26:54.007Z,0.48
2023-01-29T07:29:20.844Z,0.52
2023-01-29T07:31:47.873Z,0.51
2023-01-29T07:34:14.711Z,0.58
2023-01-29T07:36:42.851Z,0.45
2023-01-29T07:39:09.677Z,0.38
2023-01-29T07:41:36.501Z,0.51
2023-01-29T07:44:03.270Z,0.74
2023-01-29T07:46:30.072Z,1.00
2023-01-29T07:48:58.284Z,0.92
2023-01-29T07:51:25.025Z,0.69
2023-01-29T07:53:53.207Z,0.71
2023-01-29T07:56:19.929Z,0.57
2023-01-29T07:58:46.731Z,0.47
2023-01-29T08:01:13.654Z,0.61
2023-01-29T08:03:40.384Z,0.50
2023-01-29T08:06:07.577Z,0.90
2023-01-29T08:08:34.349Z,0.67
2023-01-29T08:11:03.160Z,0.96
2023-01-29T08:13:30.029Z,1.06
2023-01-29T08:15:59.618Z,1.27
2023-01-29T08:18:26.472Z,1.02
2023-01-29T08:20:53.231Z,0.95
2023-01-29T08:23:20.044Z,0.87
2023-01-29T08:25:46.961Z,0.64
2023-01-29T08:28:15.174Z,0.64
2023-01-29T08:30:41.972Z,0.57
2023-01-29T08:33:09.059Z,0.55
2023-01-29T08:35:36.037Z,0.56
2023-01-29T08:38:04.805Z,1.05
2023-01-29T08:40:33.621Z,4.13
2023-01-29T08:43:02.206Z,3.93
2023-01-29T08:45:33.129Z,4.25
2023-01-29T08:47:59.902Z,3.48
2023-01-29T08:50:26.705Z,4.90
2023-01-29T08:52:57.993Z,4.04
2023-01-29T08:55:24.854Z,4.44
2023-01-29T08:57:51.689Z,5.08
2023-01-29T09:00:19.212Z,5.62
2023-01-29T09:02:47.458Z,4.53
2023-01-29T09:05:15.218Z,3.29
2023-01-29T09:07:42.223Z,2.80
2023-01-29T09:10:10.173Z,2.76
2023-01-29T09:12:36.910Z,2.32
2023-01-29T09:15:04.265Z,2.06
2023-01-29T09:17:30.979Z,1.84
2023-01-29T09:19:59.134Z,1.85
2023-01-29T09:22:25.930Z,1.70
2023-01-29T09:24:52.763Z,1.95
2023-01-29T09:27:19.600Z,1.77
2023-01-29T09:29:46.327Z,1.48
2023-01-29T09:32:13.052Z,2.07
2023-01-29T09:34:40.161Z,2.00
2023-01-29T09:37:08.331Z,2.03
2023-01-29T09:39:35.171Z,1.77
2023-01-29T09:42:11.071Z,1.81
2023-01-29T09:44:52.391Z,1.61
2023-01-29T09:47:20.544Z,1.51
2023-01-29T09:49:51.209Z,1.78
2023-01-29T09:52:22.346Z,2.24
2023-01-29T09:54:56.973Z,1.96
2023-01-29T09:57:27.688Z,2.28
2023-01-29T09:59:55.296Z,2.37
2023-01-29T10:02:43.994Z,1.95
2023-01-29T10:05:27.210Z,1.91
2023-01-29T10:08:28.708Z,2.10
2023-01-29T10:11:03.664Z,1.71
2023-01-29T10:13:44.219Z,1.53
2023-01-29T10:16:21.331Z,1.65
2023-01-29T10:19:08.584Z,1.64
2023-01-29T10:21:46.845Z,1.64
2023-01-29T10:24:26.100Z,1.96
2023-01-29T10:26:53.023Z,1.97
2023-01-29T10:29:20.744Z,2.01
2023-01-29T10:31:52.676Z,2.02
2023-01-29T10:34:27.935Z,1.90
2023-01-29T10:36:55.533Z,1.61
2023-01-29T10:39:25.372Z,1.75
2023-01-29T10:42:08.635Z,2.33
2023-01-29T10:44:47.336Z,2.09
2023-01-29T10:47:37.663Z,1.95
2023-01-29T10:50:16.811Z,2.18
2023-01-29T10:52:53.437Z,1.77
2023-01-29T10:55:39.437Z,1.80
2023-01-29T10:58:13.251Z,1.79
2023-01-29T11:00:41.642Z,1.78
2023-01-29T11:03:26.335Z,1.90
2023-01-29T11:05:59.736Z,1.94
2023-01-29T11:08:32.981Z,1.95
2023-01-29T11:11:08.165Z,1.82
2023-01-29T11:13:40.496Z,2.25
2023-01-29T11:16:09.443Z,2.40
2023-01-29T11:18:54.048Z,2.11
2023-01-29T11:23:48.401Z,2.22
2023-01-29T11:26:20.576Z,2.26
2023-01-29T11:28:48.890Z,2.29
2023-01-29T11:31:18.094Z,2.42
2023-01-29T11:33:45.953Z,2.26
2023-01-29T11:36:32.161Z,2.52
2023-01-29T11:39:18.167Z,2.61
2023-01-29T11:41:49.640Z,2.18
2023-01-29T11:44:28.825Z,2.45
2023-01-29T11:46:57.094Z,2.37
2023-01-29T11:49:32.139Z,2.35
2023-01-29T11:52:02.342Z,2.69
2023-01-29T11:54:34.841Z,2.52
2023-01-29T11:57:04.236Z,2.87
2023-01-29T11:59:41.765Z,2.84
2023-01-29T12:02:23.928Z,2.57
2023-01-29T12:04:51.131Z,2.44
2023-01-29T12:07:19.561Z,2.52
2023-01-29T12:09:53.059Z,2.29
2023-01-29T12:12:37.915Z,2.39
2023-01-29T12:15:15.860Z,2.48
2023-01-29T12:17:50.770Z,2.48
2023-01-29T12:20:22.904Z,2.50
2023-01-29T12:22:57.940Z,2.32
2023-01-29T12:25:38.496Z,2.30
2023-01-29T12:28:19.336Z,2.16
2023-01-29T12:30:53.816Z,2.25
2023-01-29T12:33:30.997Z,2.20
2023-01-29T12:36:09.274Z,2.02
2023-01-29T12:38:37.364Z,1.88
2023-01-29T12:41:09.293Z,2.05
2023-01-29T12:43:42.161Z,2.42
2023-01-29T12:46:19.521Z,2.33
2023-01-29T12:48:47.738Z,2.19
2023-01-29T12:51:18.642Z,2.22
2023-01-29T12:53:50.980Z,2.33
2023-01-29T12:56:26.636Z,2.18
2023-01-29T12:58:57.208Z,2.91
2023-01-29T13:01:29.432Z,2.57
2023-01-29T13:04:01.544Z,2.42
2023-01-29T13:06:32.539Z,1.96
2023-01-29T13:09:03.004Z,1.88
2023-01-29T13:11:37.959Z,2.49
2023-01-29T13:14:13.378Z,2.29
2023-01-29T13:16:43.852Z,2.44
2023-01-29T13:19:21.929Z,2.11
2023-01-29T13:21:48.889Z,2.34
2023-01-29T13:24:18.191Z,2.11
2023-01-29T13:26:46.260Z,1.72
2023-01-29T13:29:22.634Z,1.90
2023-01-29T13:31:50.887Z,1.83
2023-01-29T13:34:23.161Z,2.09
2023-01-29T13:36:53.137Z,1.82
2023-01-29T13:39:25.620Z,1.65
2023-01-29T13:41:53.463Z,1.65
2023-01-29T13:44:24.891Z,1.60
2023-01-29T13:46:55.930Z,1.58
2023-01-29T13:49:29.420Z,1.54
2023-01-29T13:51:57.624Z,1.52
2023-01-29T13:54:26.944Z,1.69
2023-01-29T13:56:58.807Z,1.66
2023-01-29T13:59:50.970Z,1.94
2023-01-29T14:02:28.227Z,2.03
2023-01-29T14:05:28.260Z,2.07
2023-01-29T14:07:55.845Z,2.32
2023-01-29T14:10:23.864Z,2.18
2023-01-29T14:12:52.777Z,1.85
2023-01-29T14:15:27.442Z,2.09
2023-01-29T14:18:14.517Z,2.51
2023-01-29T14:20:52.046Z,2.68
2023-01-29T14:23:27.436Z,2.31
2023-01-29T14:25:54.728Z,2.59
2023-01-29T14:28:24.759Z,2.33
2023-01-29T14:30:53.479Z,2.43
2023-01-29T14:33:32.634Z,2.24
2023-01-29T14:36:05.780Z,2.41
2023-01-29T14:38:33.995Z,2.33
2023-01-29T14:41:13.683Z,2.34
2023-01-29T14:43:40.416Z,2.30
2023-01-29T14:46:40.545Z,2.37
2023-01-29T14:49:09.470Z,1.83
2023-01-29T14:51:38.586Z,2.18
2023-01-29T14:54:17.128Z,2.30
2023-01-29T14:56:52.415Z,2.12
2023-01-29T14:59:23.802Z,2.37
2023-01-29T15:01:54.735Z,2.45
2023-01-29T15:04:26.523Z,2.39
2023-01-29T15:07:00.018Z,2.31
2023-01-29T15:09:36.757Z,2.11
2023-01-29T15:12:13.557Z,2.53
2023-01-29T15:14:47.631Z,2.86
2023-01-29T15:17:21.903Z,2.67
2023-01-29T15:19:50.250Z,2.52
2023-01-29T15:22:18.422Z,2.91
2023-01-29T15:24:46.621Z,2.67
2023-01-29T15:27:16.748Z,3.41
2023-01-29T15:29:46.886Z,3.08
2023-01-29T15:32:18.940Z,3.41
2023-01-29T15:34:45.871Z,3.08
2023-01-29T15:37:28.316Z,3.25
2023-01-29T15:39:55.057Z,3.36
2023-01-29T15:42:21.915Z,4.22
2023-01-29T15:44:48.926Z,5.54
2023-01-29T15:47:16.148Z,6.30
2023-01-29T15:49:46.273Z,5.91
2023-01-29T15:52:19.164Z,5.07
2023-01-29T15:54:47.581Z,5.11
2023-01-29T15:57:21.568Z,4.85
2023-01-29T15:59:49.928Z,4.43
2023-01-29T16:02:32.871Z,4.36
2023-01-29T16:05:00.015Z,4.42
2023-01-29T16:07:27.631Z,4.39
2023-01-29T16:09:56.594Z,4.37
2023-01-29T16:12:23.726Z,3.55
2023-01-29T16:14:51.148Z,3.63
2023-01-29T16:17:24.359Z,3.24
2023-01-29T16:19:57.975Z,3.24
2023-01-29T16:22:26.210Z,2.73
2023-01-29T16:24:54.227Z,3.00
2023-01-29T16:27:25.416Z,3.13
2023-01-29T16:29:52.648Z,4.03
2023-01-29T16:32:20.510Z,4.23
2023-01-29T16:34:49.198Z,4.24
2023-01-29T16:37:22.324Z,4.88
2023-01-29T16:39:50.831Z,5.29
2023-01-29T16:42:29.224Z,4.45
2023-01-29T16:45:01.669Z,3.65
2023-01-29T16:47:34.488Z,3.83
2023-01-29T16:50:23.800Z,4.27
2023-01-29T16:52:57.681Z,3.72
2023-01-29T16:57:54.732Z,3.45
2023-01-29T17:00:24.571Z,3.21
2023-01-29T17:02:54.495Z,3.06
2023-01-29T17:05:26.173Z,2.88
2023-01-29T17:07:56.200Z,3.20
2023-01-29T17:10:23.508Z,2.78
2023-01-29T17:12:56.276Z,2.92
2023-01-29T17:15:35.926Z,2.66
2023-01-29T17:18:03.326Z,2.23
2023-01-29T17:20:30.795Z,2.63
2023-01-29T17:22:57.540Z,3.13
2023-01-29T17:25:24.412Z,2.77
2023-01-29T17:27:51.255Z,2.25
2023-01-29T17:30:21.823Z,2.14
2023-01-29T17:32:48.601Z,1.99
2023-01-29T17:35:16.871Z,2.59
2023-01-29T17:37:44.259Z,2.28
2023-01-29T17:40:28.412Z,1.80
2023-01-29T17:42:55.160Z,2.50
2023-01-29T17:45:23.271Z,3.74
2023-01-29T17:47:50.014Z,8.90
2023-01-29T17:50:21.104Z,9.67
2023-01-29T17:52:47.958Z,5.93
2023-01-29T17:55:15.113Z,3.34
2023-01-29T17:57:42.084Z,1.92
2023-01-29T18:00:16.356Z,1.17
2023-01-29T18:02:44.797Z,0.85
2023-01-29T18:05:11.977Z,0.76
2023-01-29T18:07:41.005Z,0.72
2023-01-29T18:10:13.404Z,0.62
2023-01-29T18:12:40.144Z,0.51
2023-01-29T18:15:08.313Z,0.46
2023-01-29T18:17:35.174Z,0.33
2023-01-29T18:20:04.044Z,0.27
2023-01-29T18:22:30.807Z,0.24
2023-01-29T18:24:57.530Z,0.42
2023-01-29T18:27:24.287Z,0.32
2023-01-29T18:29:51.315Z,0.62
2023-01-29T18:32:18.054Z,0.47
2023-01-29T18:34:44.801Z,0.50
2023-01-29T18:37:13.177Z,0.62
2023-01-29T18:39:39.943Z,0.49
2023-01-29T18:42:06.681Z,0.50
2023-01-29T18:44:33.419Z,0.40
2023-01-29T18:47:00.170Z,0.31
2023-01-29T18:49:26.991Z,0.21
2023-01-29T18:51:53.731Z,0.16
2023-01-29T18:54:21.973Z,0.15
2023-01-29T18:57:06.318Z,0.44
2023-01-29T18:59:35.528Z,0.29
2023-01-29T19:02:02.321Z,0.22
2023-01-29T19:04:29.157Z,0.16
2023-01-29T19:06:55.903Z,0.13
2023-01-29T19:09:24.834Z,0.31
2023-01-29T19:11:51.575Z,0.21
2023-01-29T19:14:18.412Z,0.11
2023-01-29T19:16:45.345Z,0.18
2023-01-29T19:19:12.080Z,0.14
2023-01-29T19:21:38.824Z,0.13
2023-01-29T19:24:06.715Z,0.16
2023-01-29T19:26:34.908Z,0.13
2023-01-29T19:29:01.897Z,0.21
2023-01-29T19:31:28.850Z,0.22
2023-01-29T19:33:55.653Z,0.25
2023-01-29T19:36:22.376Z,2.31
2023-01-29T19:38:49.135Z,1.83
2023-01-29T19:41:15.911Z,7.71
2023-01-29T19:43:44.031Z,27.32
2023-01-29T19:46:10.824Z,37.20
2023-01-29T19:48:37.552Z,23.02
2023-01-29T19:51:07.047Z,13.66
2023-01-29T19:53:33.906Z,9.83
2023-01-29T19:56:02.129Z,8.92
2023-01-29T19:58:29.597Z,6.55
2023-01-29T20:00:59.491Z,4.88
2023-01-29T20:03:27.729Z,5.34
2023-01-29T20:05:54.813Z,2.93
2023-01-29T20:08:21.796Z,1.61
2023-01-29T20:10:48.956Z,0.90
2023-01-29T20:13:16.029Z,0.62
2023-01-29T20:15:46.193Z,0.38
2023-01-29T20:18:15.819Z,0.22
2023-01-29T20:20:43.726Z,0.16
2023-01-29T20:23:11.006Z,0.14
2023-01-29T20:25:38.114Z,0.12
2023-01-29T20:28:06.985Z,0.27
2023-01-29T20:30:34.401Z,0.21
2023-01-29T20:33:01.574Z,0.11
2023-01-29T20:35:31.068Z,0.35
2023-01-29T20:37:58.848Z,0.23
2023-01-29T20:40:26.112Z,0.20
2023-01-29T20:42:52.879Z,0.16
2023-01-29T20:45:20.217Z,0.18
2023-01-29T20:47:46.952Z,0.16
2023-01-29T20:50:15.467Z,0.13
2023-01-29T20:52:44.116Z,0.12
2023-01-29T20:55:12.539Z,0.11
2023-01-29T20:57:39.598Z,0.46
2023-01-29T21:00:07.881Z,0.32
2023-01-29T21:02:34.954Z,0.26
2023-01-29T21:05:01.744Z,0.23
2023-01-29T21:07:28.483Z,0.26
2023-01-29T21:09:56.629Z,0.23
2023-01-29T21:12:23.352Z,0.17
2023-01-29T21:14:50.090Z,0.14
2023-01-29T21:17:16.842Z,0.14
2023-01-29T21:19:43.592Z,0.25
2023-01-29T21:22:10.329Z,0.22
2023-01-29T21:24:37.166Z,0.26
2023-01-29T21:27:05.344Z,0.32
2023-01-29T21:29:32.091Z,0.26
2023-01-29T21:31:58.833Z,0.23
2023-01-29T21:34:25.933Z,0.26
2023-01-29T21:36:52.716Z,0.19
2023-01-29T21:39:19.462Z,0.24
2023-01-29T21:41:48.177Z,1.38
2023-01-29T21:44:16.299Z,0.92
2023-01-29T21:46:43.179Z,0.58
2023-01-29T21:49:09.941Z,0.46
2023-01-29T21:51:36.817Z,0.39
2023-01-29T21:54:03.760Z,0.25
2023-01-29T21:56:30.509Z,0.23
2023-01-29T21:58:57.266Z,0.21
2023-01-29T22:01:37.441Z,0.26
2023-01-29T22:04:05.793Z,0.23
2023-01-29T22:06:32.521Z,0.21
2023-01-29T22:08:59.245Z,0.33
2023-01-29T22:11:26.265Z,0.22
2023-01-29T22:13:52.972Z,0.12
2023-01-29T22:16:19.800Z,0.11
2023-01-29T22:18:49.187Z,0.15
2023-01-29T22:21:15.964Z,0.13
2023-01-29T22:23:42.751Z,0.33
2023-01-29T22:26:11.149Z,0.22
2023-01-29T22:28:37.939Z,0.16
2023-01-29T22:31:05.762Z,0.17
2023-01-29T22:33:32.962Z,0.49
2023-01-29T22:36:01.271Z,0.45
2023-01-29T22:38:28.599Z,1.15
2023-01-29T22:40:56.691Z,1.32
2023-01-29T22:43:24.050Z,0.84
2023-01-29T22:45:50.822Z,0.50
2023-01-29T22:48:17.914Z,0.31
2023-01-29T22:50:44.754Z,0.21
2023-01-29T22:53:12.856Z,0.29
2023-01-29T22:55:39.613Z,0.20
2023-01-29T22:58:06.606Z,0.12
2023-01-29T23:00:33.341Z,0.06
2023-01-29T23:03:00.140Z,0.08
2023-01-29T23:05:26.902Z,0.09
2023-01-29T23:07:53.687Z,0.31
2023-01-29T23:10:21.898Z,0.22
2023-01-29T23:12:48.633Z,0.16
2023-01-29T23:15:15.634Z,0.13
2023-01-29T23:17:42.409Z,0.07
2023-01-29T23:20:10.660Z,0.08
2023-01-29T23:22:37.371Z,0.39
2023-01-29T23:25:04.587Z,0.21
2023-01-29T23:27:32.708Z,0.20
2023-01-29T23:29:59.436Z,0.11
2023-01-29T23:32:26.253Z,0.06
2023-01-29T23:34:52.987Z,0.03
2023-01-29T23:37:19.711Z,0.05
2023-01-29T23:39:46.529Z,0.07
2023-01-29T23:42:13.266Z,0.04
2023-01-29T23:44:41.996Z,0.07
2023-01-29T23:47:09.055Z,0.04
2023-01-29T23:49:36.440Z,0.26
2023-01-29T23:52:03.487Z,0.14
2023-01-29T23:54:30.351Z,0.07
2023-01-29T23:56:57.160Z,0.07
2023-01-29T23:59:26.996Z,0.09
